createdAt,value
2023-03-30T00:00:38.336Z,4.17
2023-03-30T00:03:13.377Z,7.63
2023-03-30T00:05:45.878Z,8.63
2023-03-30T00:08:18.856Z,6.05
2023-03-30T00:10:48.210Z,8.50
2023-03-30T00:13:23.432Z,7.43
2023-03-30T00:15:51.838Z,8.93
2023-03-30T00:18:21.636Z,7.10
2023-03-30T00:20:52.124Z,7.83
2023-03-30T00:23:22.608Z,5.30
2023-03-30T00:25:52.798Z,10.03
2023-03-30T00:28:21.104Z,6.40
2023-03-30T00:30:56.244Z,9.05
2023-03-30T00:33:41.405Z,6.15
2023-03-30T00:36:15.084Z,5.27
2023-03-30T00:38:43.954Z,10.70
2023-03-30T00:41:12.274Z,6.60
2023-03-30T00:43:56.527Z,6.37
2023-03-30T00:46:25.403Z,9.00
2023-03-30T00:48:58.875Z,9.63
2023-03-30T00:51:28.840Z,5.40
2023-03-30T00:54:01.295Z,5.85
2023-03-30T00:56:34.721Z,7.28
2023-03-30T00:59:03.722Z,3.95
2023-03-30T01:01:38.842Z,5.72
2023-03-30T01:04:13.281Z,7.70
2023-03-30T01:06:43.513Z,5.97
2023-03-30T01:09:33.324Z,7.20
2023-03-30T01:12:02.977Z,8.82
2023-03-30T01:14:31.606Z,6.33
2023-03-30T01:17:08.298Z,6.23
2023-03-30T01:20:17.392Z,6.20
2023-03-30T01:23:29.757Z,4.73
2023-03-30T01:26:13.350Z,10.70
2023-03-30T01:28:49.766Z,9.17
2023-03-30T01:31:36.033Z,6.38
2023-03-30T01:34:32.159Z,6.77
2023-03-30T01:37:31.676Z,9.30
2023-03-30T01:40:06.410Z,5.22
2023-03-30T01:42:42.452Z,4.30
2023-03-30T01:45:19.732Z,10.18
2023-03-30T01:47:57.181Z,11.55
2023-03-30T01:50:32.736Z,7.82
2023-03-30T01:53:31.131Z,9.57
2023-03-30T01:56:08.505Z,8.73
2023-03-30T01:58:40.984Z,9.90
2023-03-30T02:01:15.393Z,7.15
2023-03-30T02:03:46.575Z,6.73
2023-03-30T02:06:21.483Z,7.05
2023-03-30T02:08:54.588Z,11.33
2023-03-30T02:11:30.528Z,7.70
2023-03-30T02:14:00.687Z,8.70
2023-03-30T02:16:35.745Z,7.40
2023-03-30T02:19:04.536Z,5.83
2023-03-30T02:21:33.104Z,9.68
2023-03-30T02:24:03.696Z,9.05
2023-03-30T02:26:34.055Z,8.47
2023-03-30T02:29:02.801Z,4.20
2023-03-30T02:31:32.322Z,7.47
2023-03-30T02:34:15.404Z,5.20
2023-03-30T02:37:19.981Z,4.97
2023-03-30T02:40:09.104Z,5.97
2023-03-30T02:43:08.468Z,8.93
2023-03-30T02:45:53.783Z,5.57
2023-03-30T02:48:48.220Z,7.10
2023-03-30T02:51:34.840Z,6.63
2023-03-30T02:54:12.577Z,6.07
2023-03-30T02:56:48.406Z,6.20
2023-03-30T02:59:23.289Z,8.13
2023-03-30T03:01:56.878Z,10.70
2023-03-30T03:04:28.479Z,7.63
2023-03-30T03:06:59.934Z,5.77
2023-03-30T03:09:30.769Z,6.93
2023-03-30T03:12:38.741Z,5.40
2023-03-30T03:15:11.325Z,5.77
2023-03-30T03:20:33.555Z,4.80
2023-03-30T03:23:06.003Z,4.88
2023-03-30T03:25:40.232Z,12.60
2023-03-30T03:28:09.624Z,7.90
2023-03-30T03:30:43.253Z,10.57
2023-03-30T03:33:20.590Z,9.13
2023-03-30T03:35:54.753Z,9.93
2023-03-30T03:38:23.225Z,8.70
2023-03-30T03:40:53.244Z,10.33
2023-03-30T03:43:26.809Z,7.73
2023-03-30T03:45:58.942Z,11.73
2023-03-30T03:48:30.873Z,12.77
2023-03-30T03:54:03.805Z,8.40
2023-03-30T03:56:34.991Z,7.20
2023-03-30T03:59:05.702Z,11.60
2023-03-30T04:01:39.009Z,12.73
2023-03-30T04:04:08.510Z,13.77
2023-03-30T04:06:39.803Z,10.97
2023-03-30T04:09:13.554Z,13.60
2023-03-30T04:11:41.572Z,10.77
2023-03-30T04:14:10.507Z,16.33
2023-03-30T04:16:40.584Z,15.60
2023-03-30T04:19:13.035Z,14.37
2023-03-30T04:21:49.390Z,18.47
2023-03-30T04:24:18.094Z,15.43
2023-03-30T04:26:51.904Z,13.77
2023-03-30T04:29:23.220Z,15.40
2023-03-30T04:31:53.199Z,17.47
2023-03-30T04:34:21.764Z,15.67
2023-03-30T04:36:49.832Z,17.87
2023-03-30T04:39:18.238Z,14.27
2023-03-30T04:41:47.193Z,16.43
2023-03-30T04:44:15.362Z,15.80
2023-03-30T04:46:43.658Z,21.87
2023-03-30T04:49:13.091Z,18.90
2023-03-30T04:51:42.654Z,18.37
2023-03-30T04:54:10.834Z,15.37
2023-03-30T04:56:38.858Z,17.40
2023-03-30T04:59:11.609Z,19.13
2023-03-30T05:01:39.674Z,15.50
2023-03-30T05:04:08.967Z,17.67
2023-03-30T05:06:38.618Z,20.50
2023-03-30T05:09:06.696Z,20.07
2023-03-30T05:11:35.039Z,16.60
2023-03-30T05:14:03.099Z,19.53
2023-03-30T05:16:31.224Z,19.50
2023-03-30T05:18:59.322Z,18.87
2023-03-30T05:21:27.322Z,24.33
2023-03-30T05:23:57.070Z,21.00
2023-03-30T05:26:25.425Z,17.40
2023-03-30T05:28:53.482Z,21.30
2023-03-30T05:31:21.659Z,22.03
2023-03-30T05:33:50.123Z,26.83
2023-03-30T05:36:18.369Z,24.47
2023-03-30T05:38:46.871Z,26.20
2023-03-30T05:41:17.368Z,28.03
2023-03-30T05:43:45.664Z,28.07
2023-03-30T05:46:13.832Z,20.07
2023-03-30T05:48:42.016Z,25.57
2023-03-30T05:51:10.165Z,26.20
2023-03-30T05:53:38.588Z,22.83
2023-03-30T05:56:08.104Z,25.50
2023-03-30T05:58:38.521Z,22.30
2023-03-30T06:01:09.440Z,23.77
2023-03-30T06:03:38.956Z,29.67
2023-03-30T06:06:07.997Z,28.27
2023-03-30T06:08:36.074Z,25.20
2023-03-30T06:11:04.699Z,22.47
2023-03-30T06:13:33.204Z,23.77
2023-03-30T06:16:03.695Z,31.10
2023-03-30T06:18:32.282Z,25.90
2023-03-30T06:21:02.622Z,27.50
2023-03-30T06:23:31.085Z,27.13
2023-03-30T06:26:01.719Z,21.87
2023-03-30T06:28:32.140Z,25.87
2023-03-30T06:31:04.671Z,27.10
2023-03-30T06:33:37.854Z,22.83
2023-03-30T06:36:19.484Z,21.93
2023-03-30T06:38:48.828Z,30.60
2023-03-30T06:41:17.277Z,30.47
2023-03-30T06:43:45.398Z,26.13
2023-03-30T06:46:15.221Z,29.63
2023-03-30T06:48:45.254Z,24.60
2023-03-30T06:51:14.598Z,31.33
2023-03-30T06:53:42.513Z,27.47
2023-03-30T06:56:11.668Z,29.37
2023-03-30T06:58:42.633Z,23.80
2023-03-30T07:01:11.847Z,33.40
2023-03-30T07:03:41.379Z,29.07
2023-03-30T07:06:16.216Z,25.67
2023-03-30T07:08:45.235Z,33.00
2023-03-30T07:11:13.426Z,25.73
2023-03-30T07:13:42.133Z,30.80
2023-03-30T07:16:10.545Z,29.67
2023-03-30T07:18:38.766Z,29.50
2023-03-30T07:21:07.503Z,32.63
2023-03-30T07:23:37.083Z,28.83
2023-03-30T07:26:05.374Z,26.13
2023-03-30T07:28:33.434Z,33.77
2023-03-30T07:31:06.590Z,34.60
2023-03-30T07:33:37.079Z,35.97
2023-03-30T07:36:05.962Z,41.13
2023-03-30T07:38:35.971Z,30.40
2023-03-30T07:41:08.744Z,30.90
2023-03-30T07:43:36.798Z,43.70
2023-03-30T07:46:05.386Z,32.57
2023-03-30T07:48:33.510Z,35.53
2023-03-30T07:51:03.185Z,30.40
2023-03-30T07:53:31.704Z,34.63
2023-03-30T07:56:01.195Z,30.10
2023-03-30T07:58:29.586Z,32.90
2023-03-30T08:00:57.820Z,28.27
2023-03-30T08:03:26.369Z,43.57
2023-03-30T08:05:56.018Z,33.90
2023-03-30T08:08:26.544Z,39.07
2023-03-30T08:10:54.804Z,37.57
2023-03-30T08:13:24.301Z,36.00
2023-03-30T08:15:54.299Z,34.10
2023-03-30T08:18:22.990Z,37.70
2023-03-30T08:20:52.546Z,30.93
2023-03-30T08:23:21.283Z,38.37
2023-03-30T08:25:52.812Z,42.13
2023-03-30T08:28:21.527Z,36.67
2023-03-30T08:30:50.999Z,37.03
2023-03-30T08:33:19.092Z,34.43
2023-03-30T08:35:47.974Z,32.10
2023-03-30T08:38:17.647Z,33.43
2023-03-30T08:40:47.700Z,35.53
2023-03-30T08:43:40.095Z,38.80
2023-03-30T08:46:15.513Z,37.83
2023-03-30T08:48:44.588Z,25.73
2023-03-30T08:51:23.476Z,35.97
2023-03-30T08:53:57.038Z,27.60
2023-03-30T08:56:27.806Z,28.83
2023-03-30T08:59:05.721Z,29.70
2023-03-30T09:01:46.148Z,31.77
2023-03-30T09:04:24.685Z,35.17
2023-03-30T09:06:55.139Z,30.30
2023-03-30T09:09:26.227Z,33.50
2023-03-30T09:12:00.766Z,40.60
2023-03-30T09:14:36.678Z,39.17
2023-03-30T09:17:12.212Z,37.73
2023-03-30T09:19:52.186Z,41.30
2023-03-30T09:22:21.719Z,43.33
2023-03-30T09:24:51.504Z,28.47
2023-03-30T09:27:25.398Z,44.60
2023-03-30T09:29:58.201Z,30.23
2023-03-30T09:32:37.829Z,41.30
2023-03-30T09:35:16.076Z,34.43
2023-03-30T09:37:46.849Z,40.37
2023-03-30T09:40:29.595Z,40.07
2023-03-30T09:43:09.516Z,30.63
2023-03-30T09:45:44.498Z,41.20
2023-03-30T09:48:17.082Z,40.03
2023-03-30T09:50:47.635Z,39.23
2023-03-30T09:53:26.658Z,27.67
2023-03-30T09:56:04.365Z,38.00
2023-03-30T09:58:34.092Z,32.97
2023-03-30T10:01:04.554Z,33.60
2023-03-30T10:03:35.328Z,29.03
2023-03-30T10:06:08.421Z,28.75
2023-03-30T10:08:42.735Z,27.63
2023-03-30T10:11:11.724Z,33.63
2023-03-30T10:13:42.970Z,29.80
2023-03-30T10:16:20.487Z,32.87
2023-03-30T10:18:55.092Z,31.63
2023-03-30T10:21:27.088Z,28.00
2023-03-30T10:24:08.087Z,28.33
2023-03-30T10:26:39.062Z,36.97
2023-03-30T10:29:10.790Z,30.23
2023-03-30T10:31:40.902Z,26.77
2023-03-30T10:34:19.726Z,24.03
2023-03-30T10:36:51.897Z,35.73
2023-03-30T10:39:25.401Z,30.77
2023-03-30T10:41:57.286Z,40.83
2023-03-30T10:44:32.007Z,41.47
2023-03-30T10:47:16.372Z,22.27
2023-03-30T10:49:55.920Z,24.00
2023-03-30T10:52:30.912Z,41.07
2023-03-30T10:55:04.280Z,28.57
2023-03-30T10:57:43.248Z,32.37
2023-03-30T11:00:26.611Z,31.10
2023-03-30T11:03:02.222Z,29.10
2023-03-30T11:05:35.705Z,32.90
2023-03-30T11:08:05.821Z,32.13
2023-03-30T11:10:38.763Z,28.40
2023-03-30T11:13:09.067Z,31.63
2023-03-30T11:15:41.820Z,35.23
2023-03-30T11:18:16.794Z,30.60
2023-03-30T11:20:52.201Z,40.40
2023-03-30T11:23:28.037Z,41.63
2023-03-30T11:26:02.198Z,37.33
2023-03-30T11:28:47.569Z,42.40
2023-03-30T11:31:24.469Z,36.57
2023-03-30T11:33:58.561Z,36.13
2023-03-30T11:36:35.711Z,35.92
2023-03-30T11:39:07.034Z,39.33
2023-03-30T11:41:41.344Z,39.63
2023-03-30T11:44:15.390Z,39.60
2023-03-30T11:46:55.872Z,34.67
2023-03-30T11:49:34.592Z,32.97
2023-03-30T11:52:17.867Z,35.07
2023-03-30T11:55:16.701Z,39.83
2023-03-30T11:57:49.126Z,28.63
2023-03-30T12:00:47.399Z,32.80
2023-03-30T12:03:30.433Z,44.30
2023-03-30T12:06:14.431Z,38.30
2023-03-30T12:09:00.894Z,32.73
2023-03-30T12:11:36.466Z,41.97
2023-03-30T12:14:11.148Z,34.77
2023-03-30T12:16:44.773Z,39.87
2023-03-30T12:19:18.773Z,39.73
2023-03-30T12:21:54.153Z,37.23
2023-03-30T12:24:30.873Z,45.57
2023-03-30T12:27:05.752Z,45.13
2023-03-30T12:30:02.300Z,40.20
2023-03-30T12:32:32.303Z,51.63
2023-03-30T12:35:00.669Z,40.57
2023-03-30T12:37:33.383Z,40.23
2023-03-30T12:40:08.734Z,44.30
2023-03-30T12:42:46.377Z,27.30
2023-03-30T12:45:30.605Z,45.77
2023-03-30T12:48:23.734Z,40.63
2023-03-30T12:51:07.662Z,38.60
2023-03-30T12:54:09.048Z,32.63
2023-03-30T12:56:49.166Z,37.07
2023-03-30T12:59:43.801Z,37.03
2023-03-30T13:02:39.873Z,40.07
2023-03-30T13:05:19.848Z,42.97
2023-03-30T13:07:48.086Z,39.23
2023-03-30T13:10:43.045Z,36.40
2023-03-30T13:13:44.913Z,35.87
2023-03-30T13:16:14.586Z,25.33
2023-03-30T13:18:54.618Z,34.23
2023-03-30T13:21:25.306Z,34.63
2023-03-30T13:24:06.692Z,36.00
2023-03-30T13:26:44.744Z,29.03
2023-03-30T13:29:15.736Z,32.13
2023-03-30T13:32:13.488Z,35.90
2023-03-30T13:35:06.761Z,32.00
2023-03-30T13:37:50.530Z,29.73
2023-03-30T13:40:35.042Z,24.30
2023-03-30T13:43:13.980Z,27.42
2023-03-30T13:45:51.075Z,27.17
2023-03-30T13:48:34.436Z,28.27
2023-03-30T13:51:05.144Z,30.00
2023-03-30T13:53:41.400Z,32.50
2023-03-30T13:56:11.466Z,38.95
2023-03-30T13:58:42.979Z,33.83
2023-03-30T14:01:12.971Z,28.13
2023-03-30T14:03:44.876Z,24.80
2023-03-30T14:06:18.958Z,21.88
2023-03-30T14:08:49.115Z,26.30
2023-03-30T14:11:19.800Z,31.95
2023-03-30T14:13:52.127Z,23.00
2023-03-30T14:16:22.982Z,24.60
2023-03-30T14:18:53.113Z,18.05
2023-03-30T14:21:24.080Z,32.05
2023-03-30T14:23:53.955Z,29.23
2023-03-30T14:26:26.468Z,24.95
2023-03-30T14:28:56.344Z,34.15
2023-03-30T14:31:27.287Z,24.50
2023-03-30T14:33:59.201Z,27.10
2023-03-30T14:36:27.524Z,26.73
2023-03-30T14:38:57.596Z,31.63
2023-03-30T14:41:27.937Z,26.17
2023-03-30T14:43:58.418Z,28.58
2023-03-30T14:46:31.846Z,30.33
2023-03-30T14:49:04.792Z,24.23
2023-03-30T14:51:40.489Z,33.20
2023-03-30T14:54:09.711Z,22.42
2023-03-30T14:56:38.126Z,18.48
2023-03-30T14:59:08.039Z,26.75
2023-03-30T15:01:36.299Z,27.33
2023-03-30T15:04:14.613Z,26.67
2023-03-30T15:06:43.862Z,20.35
2023-03-30T15:09:17.427Z,23.52
2023-03-30T15:11:48.695Z,18.23
2023-03-30T15:14:20.783Z,23.77
2023-03-30T15:16:53.727Z,25.77
2023-03-30T15:19:30.852Z,19.50
2023-03-30T15:22:03.081Z,22.17
2023-03-30T15:24:35.362Z,22.17
2023-03-30T15:27:07.601Z,35.33
2023-03-30T15:29:35.790Z,29.23
2023-03-30T15:32:12.506Z,31.90
2023-03-30T15:35:00.947Z,25.10
2023-03-30T15:37:30.076Z,29.08
2023-03-30T15:39:58.594Z,27.73
2023-03-30T15:42:31.012Z,28.90
2023-03-30T15:45:12.642Z,23.80
2023-03-30T15:47:42.417Z,25.00
2023-03-30T15:50:15.421Z,17.42
2023-03-30T15:52:44.476Z,22.33
2023-03-30T15:55:20.222Z,15.65
2023-03-30T15:57:49.952Z,19.40
2023-03-30T16:00:22.493Z,22.38
2023-03-30T16:02:57.439Z,20.33
2023-03-30T16:05:29.648Z,19.70
2023-03-30T16:07:57.978Z,27.42
2023-03-30T16:10:28.292Z,30.17
2023-03-30T16:12:57.808Z,20.95
2023-03-30T16:15:29.036Z,30.33
2023-03-30T16:17:57.227Z,29.17
2023-03-30T16:20:28.246Z,20.90
2023-03-30T16:22:56.290Z,30.17
2023-03-30T16:25:41.821Z,24.00
2023-03-30T16:28:16.396Z,23.65
2023-03-30T16:30:47.130Z,21.63
2023-03-30T16:33:15.408Z,26.52
2023-03-30T16:35:44.898Z,27.13
2023-03-30T16:38:16.356Z,18.27
2023-03-30T16:40:46.108Z,24.17
2023-03-30T16:43:14.076Z,26.57
2023-03-30T16:45:42.164Z,23.58
2023-03-30T16:48:13.152Z,25.05
2023-03-30T16:50:43.181Z,16.23
2023-03-30T16:53:12.989Z,20.33
2023-03-30T16:55:41.699Z,20.63
2023-03-30T16:58:13.743Z,24.23
2023-03-30T17:00:46.920Z,22.92
2023-03-30T17:03:15.630Z,17.33
2023-03-30T17:05:48.158Z,22.70
2023-03-30T17:08:23.532Z,27.98
2023-03-30T17:10:52.749Z,19.47
2023-03-30T17:13:21.233Z,22.93
2023-03-30T17:15:49.227Z,25.00
2023-03-30T17:18:20.074Z,22.38
2023-03-30T17:20:50.578Z,21.80
2023-03-30T17:23:20.580Z,19.85
2023-03-30T17:25:49.609Z,25.13
2023-03-30T17:28:24.495Z,24.50
2023-03-30T17:30:55.333Z,21.33
2023-03-30T17:33:23.711Z,25.03
2023-03-30T17:35:55.172Z,29.23
2023-03-30T17:38:24.779Z,23.50
2023-03-30T17:40:53.548Z,24.03
2023-03-30T17:43:21.811Z,25.30
2023-03-30T17:45:50.733Z,24.30
2023-03-30T17:48:27.663Z,28.40
2023-03-30T17:51:16.364Z,26.53
2023-03-30T17:54:06.590Z,23.40
2023-03-30T17:56:36.438Z,25.07
2023-03-30T17:59:25.226Z,23.77
2023-03-30T18:01:53.324Z,21.43
2023-03-30T18:04:44.301Z,21.80
2023-03-30T18:07:14.936Z,30.50
2023-03-30T18:09:45.615Z,21.53
2023-03-30T18:12:17.897Z,20.73
2023-03-30T18:14:46.192Z,20.70
2023-03-30T18:17:18.280Z,34.50
2023-03-30T18:19:48.130Z,23.80
2023-03-30T18:22:16.272Z,26.67
2023-03-30T18:24:45.816Z,26.17
2023-03-30T18:27:15.051Z,20.33
2023-03-30T18:29:46.134Z,25.50
2023-03-30T18:32:14.304Z,21.97
2023-03-30T18:34:47.703Z,26.57
2023-03-30T18:37:17.783Z,27.10
2023-03-30T18:39:53.477Z,22.40
2023-03-30T18:42:22.928Z,24.77
2023-03-30T18:44:55.700Z,29.90
2023-03-30T18:47:31.250Z,28.70
2023-03-30T18:50:02.542Z,30.47
2023-03-30T18:52:33.735Z,29.60
2023-03-30T18:55:05.032Z,35.90
2023-03-30T18:57:33.843Z,32.20
2023-03-30T19:00:09.371Z,33.10
2023-03-30T19:02:38.601Z,28.80
2023-03-30T19:05:10.239Z,30.20
2023-03-30T19:07:41.347Z,29.53
2023-03-30T19:10:19.276Z,29.97
2023-03-30T19:15:28.409Z,31.13
2023-03-30T19:17:57.342Z,28.80
2023-03-30T19:20:34.840Z,30.63
2023-03-30T19:23:04.307Z,26.27
2023-03-30T19:25:36.432Z,23.67
2023-03-30T19:28:07.934Z,31.40
2023-03-30T19:30:41.819Z,39.37
2023-03-30T19:33:13.189Z,26.37
2023-03-30T19:35:46.271Z,19.00
2023-03-30T19:38:14.729Z,26.77
2023-03-30T19:40:46.043Z,25.40
2023-03-30T19:43:16.681Z,30.20
2023-03-30T19:45:47.535Z,31.97
2023-03-30T19:48:18.943Z,28.50
2023-03-30T19:50:52.035Z,29.67
2023-03-30T19:53:21.483Z,26.47
2023-03-30T19:55:51.289Z,31.27
2023-03-30T19:58:27.805Z,32.03
2023-03-30T20:00:57.475Z,39.73
2023-03-30T20:03:27.429Z,28.70
2023-03-30T20:06:01.552Z,30.40
2023-03-30T20:08:30.581Z,30.73
2023-03-30T20:11:12.084Z,25.80
2023-03-30T20:13:46.238Z,32.40
2023-03-30T20:16:20.359Z,38.17
2023-03-30T20:18:51.680Z,28.17
2023-03-30T20:21:20.978Z,32.33
2023-03-30T20:23:50.515Z,28.20
2023-03-30T20:26:20.692Z,31.57
2023-03-30T20:28:53.105Z,25.60
2023-03-30T20:31:22.790Z,22.47
2023-03-30T20:34:03.583Z,24.90
2023-03-30T20:36:32.241Z,29.17
2023-03-30T20:39:01.465Z,36.17
2023-03-30T20:41:38.218Z,28.37
2023-03-30T20:44:11.654Z,40.27
2023-03-30T20:46:44.376Z,27.77
2023-03-30T20:49:14.997Z,23.90
2023-03-30T20:51:45.294Z,33.37
2023-03-30T20:54:16.208Z,37.70
2023-03-30T20:57:07.501Z,28.20
2023-03-30T20:59:37.124Z,29.87
2023-03-30T21:02:13.574Z,35.07
2023-03-30T21:04:43.919Z,27.77
2023-03-30T21:07:13.629Z,30.77
2023-03-30T21:09:46.956Z,32.97
2023-03-30T21:12:24.226Z,32.33
2023-03-30T21:14:54.625Z,29.03
2023-03-30T21:17:23.442Z,30.60
2023-03-30T21:19:54.182Z,32.00
2023-03-30T21:22:25.012Z,24.27
2023-03-30T21:25:02.222Z,24.37
2023-03-30T21:27:32.987Z,26.70
2023-03-30T21:30:02.868Z,23.43
2023-03-30T21:32:42.241Z,31.07
2023-03-30T21:35:10.929Z,26.07
2023-03-30T21:37:41.836Z,28.57
2023-03-30T21:40:11.238Z,29.00
2023-03-30T21:43:02.599Z,28.00
2023-03-30T21:45:33.756Z,28.17
2023-03-30T21:48:43.537Z,30.43
2023-03-30T21:51:17.695Z,21.03
2023-03-30T21:53:54.016Z,26.83
2023-03-30T21:56:25.801Z,29.23
2023-03-30T21:59:16.158Z,28.93
2023-03-30T22:01:44.997Z,27.23
2023-03-30T22:04:13.484Z,21.53
2023-03-30T22:06:41.836Z,27.60
2023-03-30T22:09:10.597Z,24.83
2023-03-30T22:11:40.817Z,31.63
2023-03-30T22:14:11.961Z,24.20
2023-03-30T22:16:47.551Z,30.97
2023-03-30T22:19:19.195Z,27.97
2023-03-30T22:22:07.639Z,28.90
2023-03-30T22:24:36.363Z,21.67
2023-03-30T22:27:05.224Z,19.73
2023-03-30T22:29:38.124Z,20.80
2023-03-30T22:32:10.770Z,18.63
2023-03-30T22:34:40.178Z,21.87
2023-03-30T22:37:09.694Z,26.03
2023-03-30T22:39:39.455Z,22.13
2023-03-30T22:42:10.747Z,17.27
2023-03-30T22:44:41.412Z,23.10
2023-03-30T22:47:11.490Z,23.20
2023-03-30T22:49:43.254Z,24.03
2023-03-30T22:52:13.810Z,22.57
2023-03-30T22:54:48.814Z,19.47
2023-03-30T22:57:18.566Z,21.03
2023-03-30T22:59:53.383Z,21.60
2023-03-30T23:02:41.878Z,22.50
2023-03-30T23:05:15.982Z,27.60
2023-03-30T23:07:48.544Z,26.77
2023-03-30T23:10:19.119Z,22.03
2023-03-30T23:13:07.552Z,24.83
2023-03-30T23:15:38.190Z,20.27
2023-03-30T23:18:07.785Z,25.80
2023-03-30T23:20:37.024Z,22.50
2023-03-30T23:23:05.344Z,19.50
2023-03-30T23:25:39.777Z,16.57
2023-03-30T23:28:09.408Z,16.87
2023-03-30T23:30:41.213Z,15.50
2023-03-30T23:33:09.717Z,19.60
2023-03-30T23:35:39.411Z,16.13
2023-03-30T23:38:10.139Z,17.13
2023-03-30T23:40:40.339Z,16.40
2023-03-30T23:43:11.938Z,20.43
2023-03-30T23:45:44.511Z,18.70
2023-03-30T23:48:13.013Z,17.13
2023-03-30T23:51:01.202Z,14.77
2023-03-30T23:53:29.773Z,15.70
2023-03-30T23:55:59.748Z,14.77
2023-03-30T23:58:28.379Z,17.57
